Terminal Aerodrome Forecast
Issued by NWS Rapid City, SD

Home | Current Version | Previous Version | Text Only | Print | Product List | Glossary On
Versions: 1 2 3 4 5 6 7 8 9 10 11 12 13 14 15 16 17 18 19 20 21
000
FTUS43 KUNR 281720
TAFRAP
TAF
KRAP 281720Z 2818/2918 36010KT P6SM OVC007
     FM290300 01008KT 2SM -DZ BR OVC004
     FM290600 36006KT 1/2SM -DZ FG OVC002
     FM291600 04009KT 4SM BR OVC006=

USA.gov is the U.S. government's official web portal to all federal, state and local government web resources and services.